Time;durP1;ratioP1;P1;durP2;ratioP2;P2;SDS_P1;SDS_P2;PMS_P1;PMS_P2;Temp;Humidity;BMP_temperature;BMP_pressure;BME280_temperature;BME280_humidity;BME280_pressure;Samples;Min_cycle;Max_cycle;Signal;HPM_P1;HPM_P2
2022/09/10 00:02:15;;;;;;;;;;;;;;;;;;5010148;28;19913;-85
2022/09/10 00:04:41;;;;;;;;;;;;;;;;;;4978701;28;19921;-86
2022/09/10 00:07:06;;;;;;;;;;;;;;;;;;4981776;28;19914;-86
2022/09/10 00:09:31;;;;;;;;;;;;;;;;;;4982393;28;20016;-88
2022/09/10 00:11:57;;;;;;;;;;;;;;;;;;4980548;28;19968;-87
2022/09/10 00:14:22;;;;;;;;;;;;;;;;;;4980441;28;19961;-88
2022/09/10 00:16:48;;;;;;;;;;;;;;;;;;4996436;28;19914;-86
2022/09/10 00:19:13;;;;;;;;;;;;;;;;;;4980571;28;20365;-87
2022/09/10 00:21:39;;;;;;;;;;;;;;;;;;4996872;28;19921;-86
2022/09/10 00:24:04;;;;;;;;;;;;;;;;;;5001873;28;19917;-88
2022/09/10 00:26:30;;;;;;;;;;;;;;;;;;4966773;28;20368;-87
2022/09/10 00:28:57;;;;;;;;;;;;;;;;;;4997504;28;19973;-88
2022/09/10 00:31:22;;;;;;;;;;;;;;;;;;4995872;28;19984;-83
2022/09/10 00:33:49;;;;;;;;;;;;;;;;;;4981008;28;20377;-84
2022/09/10 00:36:14;;;;;;;;;;;;;;;;;;4995623;28;20385;-85
2022/09/10 00:38:40;;;;;;;;;;;;;;;;;;4996507;28;19971;-85
2022/09/10 00:41:07;;;;;;;;;;;;;;;;;;4995695;28;20407;-88
2022/09/10 00:43:32;;;;;;;;;;;;;;;;;;4978635;28;20361;-81
2022/09/10 00:45:57;;;;;;;;;;;;;;;;;;4995778;28;19913;-82
2022/09/10 00:48:23;;;;;;;;;;;;;;;;;;4996867;28;20062;-83
2022/09/10 00:50:50;;;;;;;;;;;;;;;;;;4979909;28;19914;-81
2022/09/10 00:53:15;;;;;;;;;;;;;;;;;;4996880;28;20008;-81
2022/09/10 00:55:41;;;;;;;;;;;;;;;;;;4995676;28;19913;-83
2022/09/10 00:58:06;;;;;;;;;;;;;;;;;;4996374;28;20021;-84
2022/09/10 01:00:31;;;;;;;;;;;;;;;;;;4996790;28;20004;-85
2022/09/10 01:02:58;;;;;;;;;;;;;;;;;;4995555;28;19914;-85
2022/09/10 01:05:23;;;;;;;;;;;;;;;;;;4996223;28;19914;-84
2022/09/10 01:07:48;;;;;;;;;;;;;;;;;;4995008;28;20364;-85
2022/09/10 01:10:14;;;;;;;;;;;;;;;;;;4995273;28;19928;-84
2022/09/10 01:12:39;;;;;;;;;;;;;;;;;;4995540;28;19914;-84
2022/09/10 01:15:05;;;;;;;;;;;;;;;;;;4995442;28;19937;-85
2022/09/10 01:17:31;;;;;;;;;;;;;;;;;;4995852;28;19966;-86
2022/09/10 01:19:57;;;;;;;;;;;;;;;;;;4996045;28;19964;-85
2022/09/10 01:22:22;;;;;;;;;;;;;;;;;;4995468;28;19918;-83
2022/09/10 01:24:47;;;;;;;;;;;;;;;;;;4997211;28;19913;-86
2022/09/10 01:27:13;;;;;;;;;;;;;;;;;;4996544;28;19941;-86
2022/09/10 01:29:39;;;;;;;;;;;;;;;;;;4980077;28;19925;-84
2022/09/10 01:32:05;;;;;;;;;;;;;;;;;;4997732;28;19961;-84
2022/09/10 01:34:31;;;;;;;;;;;;;;;;;;4998279;28;20449;-84
2022/09/10 01:36:57;;;;;;;;;;;;;;;;;;5000255;28;19945;-86
2022/09/10 01:39:22;;;;;;;;;;;;;;;;;;4997167;28;20285;-86
2022/09/10 01:41:48;;;;;;;;;;;;;;;;;;4995554;28;19953;-86
2022/09/10 01:44:13;;;;;;;;;;;;;;;;;;4994869;28;19977;-86
2022/09/10 01:46:41;;;;;;;;;;;;;;;;;;4994778;28;19920;-85
2022/09/10 01:49:07;;;;;;;;;;;;;;;;;;4977928;28;20292;-86
2022/09/10 01:51:33;;;;;;;;;;;;;;;;;;4977301;28;20004;-86
2022/09/10 01:53:59;;;;;;;;;;;;;;;;;;4993192;28;19920;-86
2022/09/10 01:56:25;;;;;;;;;;;;;;;;;;4993933;28;19914;-84
2022/09/10 01:58:53;;;;;;;;;;;;;;;;;;4994088;28;20388;-83
2022/09/10 02:01:25;;;;;;;;;;;;;;;;;;4995332;28;20383;-84
2022/09/10 02:03:51;;;;;;;;;;;;;;;;;;4996763;28;19921;-85
2022/09/10 02:06:17;;;;;;;;;;;;;;;;;;4995679;28;19921;-83
2022/09/10 02:08:43;;;;;;;;;;;;;;;;;;4995964;28;20519;-85
2022/09/10 02:11:08;;;;;;;;;;;;;;;;;;4993156;28;19949;-81
2022/09/10 02:13:37;;;;;;;;;;;;;;;;;;4994907;28;19914;-88
2022/09/10 02:16:36;;;;;;;;;;;;;;;;;;5005688;28;19913;-85
2022/09/10 02:19:01;;;;;;;;;;;;;;;;;;4998961;28;19920;-85
2022/09/10 02:21:28;;;;;;;;;;;;;;;;;;5000005;28;19949;-84
2022/09/10 02:23:55;;;;;;;;;;;;;;;;;;4964091;28;20392;-85
2022/09/10 02:26:24;;;;;;;;;;;;;;;;;;4978182;28;19914;-86
2022/09/10 02:28:50;;;;;;;;;;;;;;;;;;4993072;28;19956;-85
2022/09/10 02:31:17;;;;;;;;;;;;;;;;;;4977578;28;19937;-83
2022/09/10 02:33:43;;;;;;;;;;;;;;;;;;4977561;28;20029;-84
2022/09/10 02:36:09;;;;;;;;;;;;;;;;;;4992719;28;20435;-83
2022/09/10 02:38:35;;;;;;;;;;;;;;;;;;4960291;28;19989;-84
2022/09/10 02:41:00;;;;;;;;;;;;;;;;;;4960708;28;19921;-84
2022/09/10 02:43:26;;;;;;;;;;;;;;;;;;4976202;28;19982;-87
2022/09/10 02:45:53;;;;;;;;;;;;;;;;;;4992426;28;20399;-86
2022/09/10 02:48:20;;;;;;;;;;;;;;;;;;4992648;28;20000;-86
2022/09/10 02:50:45;;;;;;;;;;;;;;;;;;4994971;28;19918;-84
2022/09/10 02:53:12;;;;;;;;;;;;;;;;;;4976509;28;20284;-87
2022/09/10 02:55:37;;;;;;;;;;;;;;;;;;4992099;28;19914;-86
2022/09/10 02:58:02;;;;;;;;;;;;;;;;;;4992473;28;20009;-87
2022/09/10 03:00:30;;;;;;;;;;;;;;;;;;4992929;28;19914;-86
2022/09/10 03:02:56;;;;;;;;;;;;;;;;;;4993574;28;20368;-85
2022/09/10 03:05:21;;;;;;;;;;;;;;;;;;4994894;28;19941;-85
2022/09/10 03:07:46;;;;;;;;;;;;;;;;;;4993005;28;19914;-86
2022/09/10 03:10:12;;;;;;;;;;;;;;;;;;4994743;28;20406;-86
2022/09/10 03:12:38;;;;;;;;;;;;;;;;;;4995698;28;19964;-85
2022/09/10 03:15:03;;;;;;;;;;;;;;;;;;4992280;28;19910;-85
2022/09/10 03:17:29;;;;;;;;;;;;;;;;;;4975845;28;19921;-84
2022/09/10 03:19:54;;;;;;;;;;;;;;;;;;4992183;28;19914;-84
2022/09/10 03:22:20;;;;;;;;;;;;;;;;;;4992305;28;19910;-84
2022/09/10 03:24:46;;;;;;;;;;;;;;;;;;4976114;28;20308;-84
2022/09/10 03:27:12;;;;;;;;;;;;;;;;;;4992122;28;19914;-84
2022/09/10 03:29:38;;;;;;;;;;;;;;;;;;4993128;28;19921;-85
2022/09/10 03:32:03;;;;;;;;;;;;;;;;;;4993279;28;20312;-84
2022/09/10 03:34:29;;;;;;;;;;;;;;;;;;4991576;28;19914;-84
2022/09/10 03:36:54;;;;;;;;;;;;;;;;;;4993142;28;19924;-84
2022/09/10 03:39:20;;;;;;;;;;;;;;;;;;4991792;28;19910;-84
2022/09/10 03:41:46;;;;;;;;;;;;;;;;;;4992872;28;20262;-84
2022/09/10 03:44:13;;;;;;;;;;;;;;;;;;4959642;28;20313;-84
2022/09/10 03:46:38;;;;;;;;;;;;;;;;;;4992871;28;20001;-85
2022/09/10 03:49:04;;;;;;;;;;;;;;;;;;4991587;28;20373;-84
2022/09/10 03:51:31;;;;;;;;;;;;;;;;;;4991473;28;20008;-85
2022/09/10 03:53:58;;;;;;;;;;;;;;;;;;4975944;28;20074;-84
2022/09/10 03:56:23;;;;;;;;;;;;;;;;;;4991466;28;20253;-87
2022/09/10 03:58:49;;;;;;;;;;;;;;;;;;4993038;28;19925;-87
2022/09/10 04:01:15;;;;;;;;;;;;;;;;;;4991718;28;19941;-86
2022/09/10 04:03:43;;;;;;;;;;;;;;;;;;4991857;28;20380;-87
2022/09/10 04:06:08;;;;;;;;;;;;;;;;;;4992592;28;19914;-87
2022/09/10 04:08:33;;;;;;;;;;;;;;;;;;4992685;28;19917;-87
2022/09/10 04:10:59;;;;;;;;;;;;;;;;;;4991730;28;20005;-87
2022/09/10 04:13:24;;;;;;;;;;;;;;;;;;4991758;28;19914;-87
2022/09/10 04:15:49;;;;;;;;;;;;;;;;;;4993060;28;20000;-87
2022/09/10 04:18:15;;;;;;;;;;;;;;;;;;4992649;28;20112;-88
2022/09/10 04:20:42;;;;;;;;;;;;;;;;;;4992867;28;19937;-88
2022/09/10 04:23:09;;;;;;;;;;;;;;;;;;4992405;28;20005;-87
2022/09/10 04:25:36;;;;;;;;;;;;;;;;;;4991536;28;19914;-85
2022/09/10 04:28:02;;;;;;;;;;;;;;;;;;4975587;28;19920;-85
2022/09/10 04:30:28;;;;;;;;;;;;;;;;;;4975715;28;19917;-85
2022/09/10 04:32:56;;;;;;;;;;;;;;;;;;4991954;28;19917;-85
2022/09/10 04:35:21;;;;;;;;;;;;;;;;;;4975935;28;19921;-84
2022/09/10 04:37:47;;;;;;;;;;;;;;;;;;4993609;28;19913;-84
2022/09/10 04:40:13;;;;;;;;;;;;;;;;;;4995189;28;19945;-85
2022/09/10 04:42:38;;;;;;;;;;;;;;;;;;4994027;28;19980;-83
2022/09/10 04:45:03;;;;;;;;;;;;;;;;;;4994691;28;19957;-83
2022/09/10 04:47:30;;;;;;;;;;;;;;;;;;4978268;28;19913;-86
2022/09/10 04:49:55;;;;;;;;;;;;;;;;;;4978400;28;19917;-85
2022/09/10 04:52:23;;;;;;;;;;;;;;;;;;4978710;28;19917;-86
2022/09/10 04:54:49;;;;;;;;;;;;;;;;;;4978575;28;19914;-86
2022/09/10 04:57:14;;;;;;;;;;;;;;;;;;4978319;28;19925;-86
2022/09/10 04:59:39;;;;;;;;;;;;;;;;;;4977700;28;19917;-86
2022/09/10 05:02:07;;;;;;;;;;;;;;;;;;4978185;28;19914;-86
2022/09/10 05:04:34;;;;;;;;;;;;;;;;;;4994291;28;20396;-84
2022/09/10 05:07:00;;;;;;;;;;;;;;;;;;4994085;28;19917;-83
2022/09/10 05:09:29;;;;;;;;;;;;;;;;;;4977943;28;19918;-84
2022/09/10 05:11:55;;;;;;;;;;;;;;;;;;4994488;28;19921;-85
2022/09/10 05:14:20;;;;;;;;;;;;;;;;;;4978466;28;19910;-85
2022/09/10 05:16:47;;;;;;;;;;;;;;;;;;4977126;28;19914;-85
2022/09/10 05:19:16;;;;;;;;;;;;;;;;;;4977820;28;19914;-84
2022/09/10 05:21:46;;;;;;;;;;;;;;;;;;4978350;28;19936;-83
2022/09/10 05:24:12;;;;;;;;;;;;;;;;;;4994186;28;19918;-83
2022/09/10 05:26:37;;;;;;;;;;;;;;;;;;4995115;28;19910;-83
2022/09/10 05:29:03;;;;;;;;;;;;;;;;;;4993772;28;19918;-83
2022/09/10 05:31:29;;;;;;;;;;;;;;;;;;4993832;28;20009;-83
2022/09/10 05:33:54;;;;;;;;;;;;;;;;;;4993431;28;20348;-82
2022/09/10 05:36:20;;;;;;;;;;;;;;;;;;4977523;28;19914;-86
2022/09/10 05:38:45;;;;;;;;;;;;;;;;;;4994904;28;19989;-86
2022/09/10 05:41:11;;;;;;;;;;;;;;;;;;4993819;28;19913;-84
2022/09/10 05:43:40;;;;;;;;;;;;;;;;;;4993797;28;20392;-85
2022/09/10 05:46:07;;;;;;;;;;;;;;;;;;4994630;28;20001;-85
2022/09/10 05:48:33;;;;;;;;;;;;;;;;;;4992355;28;20393;-85
2022/09/10 05:50:58;;;;;;;;;;;;;;;;;;4992854;28;19917;-85
2022/09/10 05:53:23;;;;;;;;;;;;;;;;;;4993615;28;19917;-86
2022/09/10 05:55:49;;;;;;;;;;;;;;;;;;4994910;28;19917;-87
2022/09/10 05:58:15;;;;;;;;;;;;;;;;;;5004567;23;19932;-82
2022/09/10 06:00:42;;;;;;;;;;;;;;;;;;4977362;28;20357;-81
2022/09/10 06:03:07;;;;;;;;;;;;;;;;;;4993501;28;20385;-80
2022/09/10 06:05:38;;;;;;;;;;;;;;;;;;4991039;28;19972;-80
2022/09/10 06:08:04;;;;;;;;;;;;;;;;;;4986701;28;20314;-81
2022/09/10 06:10:31;;;;;;;;;;;;;;;;;;4954277;28;19918;-81
2022/09/10 06:12:57;;;;;;;;;;;;;;;;;;4970743;28;19921;-81
2022/09/10 06:15:22;;;;;;;;;;;;;;;;;;4954535;28;19919;-80
2022/09/10 06:17:52;;;;;;;;;;;;;;;;;;4986493;28;19941;-81
2022/09/10 06:20:22;;;;;;;;;;;;;;;;;;4954293;28;20389;-81
2022/09/10 06:22:47;;;;;;;;;;;;;;;;;;4964978;28;20286;-84
2022/09/10 06:25:13;;;;;;;;;;;;;;;;;;4989639;28;19921;-83
2022/09/10 06:27:39;;;;;;;;;;;;;;;;;;4989257;28;19948;-84
2022/09/10 06:30:05;;;;;;;;;;;;;;;;;;4973386;28;19918;-84
2022/09/10 06:32:30;;;;;;;;;;;;;;;;;;4974586;28;20404;-83
2022/09/10 06:34:56;;;;;;;;;;;;;;;;;;4989772;28;20296;-83
2022/09/10 06:37:23;;;;;;;;;;;;;;;;;;4989054;28;20377;-85
2022/09/10 06:39:48;;;;;;;;;;;;;;;;;;4989585;28;19921;-85
2022/09/10 06:42:14;;;;;;;;;;;;;;;;;;4989686;28;19914;-81
2022/09/10 06:45:02;;;;;;;;;;;;;;;;;;4973190;28;20009;-85
2022/09/10 06:47:40;;;;;;;;;;;;;;;;;;4973615;28;19965;-85
2022/09/10 06:50:05;;;;;;;;;;;;;;;;;;4989659;28;19918;-85
2022/09/10 06:52:34;;;;;;;;;;;;;;;;;;4989662;28;20008;-85
2022/09/10 06:55:04;;;;;;;;;;;;;;;;;;4972134;28;20010;-85
2022/09/10 06:57:48;;;;;;;;;;;;;;;;;;4969644;28;19929;-84
2022/09/10 07:00:15;;;;;;;;;;;;;;;;;;4969508;28;19961;-83
2022/09/10 07:02:43;;;;;;;;;;;;;;;;;;4954019;28;19914;-84
2022/09/10 07:05:10;;;;;;;;;;;;;;;;;;4954012;28;19921;-83
2022/09/10 07:07:36;;;;;;;;;;;;;;;;;;4953710;28;19977;-82
2022/09/10 07:10:03;;;;;;;;;;;;;;;;;;4985561;28;19964;-82
2022/09/10 07:12:28;;;;;;;;;;;;;;;;;;4989791;28;20377;-88
2022/09/10 07:14:54;;;;;;;;;;;;;;;;;;5005765;28;19915;-85
2022/09/10 07:17:20;;;;;;;;;;;;;;;;;;5006185;28;20305;-85
2022/09/10 07:19:45;;;;;;;;;;;;;;;;;;4989222;28;19914;-84
2022/09/10 07:22:18;;;;;;;;;;;;;;;;;;4974874;28;19968;-84
2022/09/10 07:24:45;;;;;;;;;;;;;;;;;;4990490;28;19922;-82
2022/09/10 07:27:14;;;;;;;;;;;;;;;;;;4990254;28;19949;-84
2022/09/10 07:29:41;;;;;;;;;;;;;;;;;;4972666;28;19918;-85
2022/09/10 07:32:11;;;;;;;;;;;;;;;;;;4988970;28;20005;-85
2022/09/10 07:34:37;;;;;;;;;;;;;;;;;;4989116;28;19921;-86
2022/09/10 07:37:03;;;;;;;;;;;;;;;;;;4989180;28;19910;-85
2022/09/10 07:39:29;;;;;;;;;;;;;;;;;;4988333;28;19914;-85
2022/09/10 07:41:55;;;;;;;;;;;;;;;;;;4972188;28;19917;-81
2022/09/10 07:44:24;;;;;;;;;;;;;;;;;;4989307;28;19961;-81
2022/09/10 07:46:50;;;;;;;;;;;;;;;;;;4989327;28;20423;-80
2022/09/10 07:49:15;;;;;;;;;;;;;;;;;;4989017;28;19918;-81
2022/09/10 07:51:44;;;;;;;;;;;;;;;;;;4972820;28;19910;-81
2022/09/10 07:54:10;;;;;;;;;;;;;;;;;;4973564;28;20378;-82
2022/09/10 07:56:43;;;;;;;;;;;;;;;;;;5006927;28;19914;-83
2022/09/10 07:59:10;;;;;;;;;;;;;;;;;;4990183;28;19966;-87
2022/09/10 08:01:51;;;;;;;;;;;;;;;;;;5005014;28;20345;-83
2022/09/10 08:04:18;;;;;;;;;;;;;;;;;;4990595;28;19915;-84
2022/09/10 08:06:44;;;;;;;;;;;;;;;;;;4973238;28;19937;-76
2022/09/10 08:09:09;;;;;;;;;;;;;;;;;;4988129;28;19914;-77
2022/09/10 08:11:39;;;;;;;;;;;;;;;;;;5005601;28;19980;-82
2022/09/10 08:14:06;;;;;;;;;;;;;;;;;;5009399;28;19997;-81
2022/09/10 08:16:32;;;;;;;;;;;;;;;;;;4991731;28;20004;-78
2022/09/10 08:19:03;;;;;;;;;;;;;;;;;;4977288;28;19924;-77
2022/09/10 08:21:30;;;;;;;;;;;;;;;;;;4992413;28;20381;-79
2022/09/10 08:23:57;;;;;;;;;;;;;;;;;;4994757;28;20339;-79
2022/09/10 08:26:24;;;;;;;;;;;;;;;;;;4995679;28;19910;-79
2022/09/10 08:28:50;;;;;;;;;;;;;;;;;;4992608;28;19914;-78
2022/09/10 08:31:16;;;;;;;;;;;;;;;;;;4992087;28;19965;-77
2022/09/10 08:33:49;;;;;;;;;;;;;;;;;;4990404;28;19953;-77
2022/09/10 08:36:15;;;;;;;;;;;;;;;;;;4991665;28;19945;-78
2022/09/10 08:38:41;;;;;;;;;;;;;;;;;;4991444;28;19915;-78
2022/09/10 08:41:08;;;;;;;;;;;;;;;;;;4975094;28;19949;-78
2022/09/10 08:43:33;;;;;;;;;;;;;;;;;;4975381;28;19961;-78
2022/09/10 08:46:00;;;;;;;;;;;;;;;;;;4975095;28;19984;-77
2022/09/10 08:48:26;;;;;;;;;;;;;;;;;;4991294;28;19921;-77
2022/09/10 08:50:52;;;;;;;;;;;;;;;;;;4990390;28;19918;-77
2022/09/10 08:53:21;;;;;;;;;;;;;;;;;;4991509;28;19921;-77
2022/09/10 08:55:48;;;;;;;;;;;;;;;;;;4991242;28;20061;-77
2022/09/10 08:58:14;;;;;;;;;;;;;;;;;;4975597;28;19954;-77
2022/09/10 09:00:40;;;;;;;;;;;;;;;;;;4994498;28;19915;-76
2022/09/10 09:03:10;;;;;;;;;;;;;;;;;;4996375;28;19914;-78
2022/09/10 09:05:36;;;;;;;;;;;;;;;;;;4979289;28;19920;-77
2022/09/10 09:08:02;;;;;;;;;;;;;;;;;;5006547;28;20013;-76
2022/09/10 09:10:31;;;;;;;;;;;;;;;;;;4991383;28;19918;-76
2022/09/10 09:12:57;;;;;;;;;;;;;;;;;;4991559;28;19981;-77
2022/09/10 09:15:24;;;;;;;;;;;;;;;;;;4991347;28;19910;-77
2022/09/10 09:17:50;;;;;;;;;;;;;;;;;;5007024;28;19918;-78
2022/09/10 09:20:19;;;;;;;;;;;;;;;;;;5006957;28;20381;-78
2022/09/10 09:22:48;;;;;;;;;;;;;;;;;;4989847;28;20108;-78
2022/09/10 09:25:15;;;;;;;;;;;;;;;;;;4974629;28;19914;-77
2022/09/10 09:27:41;;;;;;;;;;;;;;;;;;5006878;28;20340;-77
2022/09/10 09:30:06;;;;;;;;;;;;;;;;;;5006813;28;19927;-76
2022/09/10 09:32:35;;;;;;;;;;;;;;;;;;4990512;28;20429;-78
2022/09/10 09:35:01;;;;;;;;;;;;;;;;;;4990452;28;20061;-78
2022/09/10 09:37:28;;;;;;;;;;;;;;;;;;4975247;28;20008;-76
2022/09/10 09:39:58;;;;;;;;;;;;;;;;;;4989610;28;19921;-79
2022/09/10 09:42:24;;;;;;;;;;;;;;;;;;4974322;28;19921;-78
2022/09/10 09:44:50;;;;;;;;;;;;;;;;;;4990319;28;19910;-76
2022/09/10 09:47:16;;;;;;;;;;;;;;;;;;4990130;28;19914;-77
2022/09/10 09:49:42;;;;;;;;;;;;;;;;;;4973938;28;19922;-76
2022/09/10 09:52:08;;;;;;;;;;;;;;;;;;4990343;28;19918;-78
2022/09/10 09:54:34;;;;;;;;;;;;;;;;;;5003911;28;19921;-78
2022/09/10 09:57:00;;;;;;;;;;;;;;;;;;4970424;28;19914;-77
2022/09/10 09:59:26;;;;;;;;;;;;;;;;;;4976757;28;19981;-76
2022/09/10 10:01:51;;;;;;;;;;;;;;;;;;4968725;28;19918;-78
2022/09/10 10:04:16;;;;;;;;;;;;;;;;;;4972936;28;19910;-78
2022/09/10 10:06:42;;;;;;;;;;;;;;;;;;4988959;28;19925;-77
2022/09/10 10:09:07;;;;;;;;;;;;;;;;;;4972953;28;20299;-76
2022/09/10 10:11:33;;;;;;;;;;;;;;;;;;4989618;28;19929;-78
2022/09/10 10:13:58;;;;;;;;;;;;;;;;;;4970121;28;19919;-78
2022/09/10 10:16:25;;;;;;;;;;;;;;;;;;4988044;28;20274;-77
2022/09/10 10:18:51;;;;;;;;;;;;;;;;;;4957211;28;20001;-77
2022/09/10 10:21:16;;;;;;;;;;;;;;;;;;4972223;28;20386;-79
2022/09/10 10:23:41;;;;;;;;;;;;;;;;;;4965062;28;19921;-76
2022/09/10 10:26:07;;;;;;;;;;;;;;;;;;4969796;28;20471;-76
2022/09/10 10:28:35;;;;;;;;;;;;;;;;;;4987749;28;19921;-78
2022/09/10 10:31:03;;;;;;;;;;;;;;;;;;4974308;28;19925;-77
2022/09/10 10:33:28;;;;;;;;;;;;;;;;;;4973633;28;19918;-78
2022/09/10 10:35:55;;;;;;;;;;;;;;;;;;4989103;28;20304;-78
2022/09/10 10:38:21;;;;;;;;;;;;;;;;;;4972959;28;20508;-78
2022/09/10 10:40:47;;;;;;;;;;;;;;;;;;4974314;28;20001;-77
2022/09/10 10:43:14;;;;;;;;;;;;;;;;;;4974453;28;19953;-78
2022/09/10 10:45:39;;;;;;;;;;;;;;;;;;4989552;28;19914;-76
2022/09/10 10:48:08;;;;;;;;;;;;;;;;;;4973979;28;19918;-77
2022/09/10 10:50:34;;;;;;;;;;;;;;;;;;4973349;28;19918;-78
2022/09/10 10:53:00;;;;;;;;;;;;;;;;;;5005342;28;20513;-77
2022/09/10 10:55:26;;;;;;;;;;;;;;;;;;4988977;28;19919;-77
2022/09/10 10:57:52;;;;;;;;;;;;;;;;;;4974187;28;20396;-83
2022/09/10 11:00:17;;;;;;;;;;;;;;;;;;4975007;28;20008;-81
2022/09/10 11:02:47;;;;;;;;;;;;;;;;;;4975777;28;19914;-82
2022/09/10 11:05:12;;;;;;;;;;;;;;;;;;4974640;28;19921;-81
2022/09/10 11:07:38;;;;;;;;;;;;;;;;;;4972460;28;20020;-81
2022/09/10 11:10:03;;;;;;;;;;;;;;;;;;4989337;28;20417;-81
2022/09/10 11:12:29;;;;;;;;;;;;;;;;;;4988968;28;19914;-81
2022/09/10 11:14:57;;;;;;;;;;;;;;;;;;4973670;28;20358;-82
2022/09/10 11:17:22;;;;;;;;;;;;;;;;;;5004843;28;19920;-83
2022/09/10 11:19:48;;;;;;;;;;;;;;;;;;4989221;28;19918;-82
2022/09/10 11:22:13;;;;;;;;;;;;;;;;;;4973470;28;19914;-83
2022/09/10 11:24:39;;;;;;;;;;;;;;;;;;4972318;28;20270;-83
2022/09/10 11:27:05;;;;;;;;;;;;;;;;;;4972644;28;20022;-81
2022/09/10 11:29:30;;;;;;;;;;;;;;;;;;4972522;28;19946;-82
2022/09/10 11:31:56;;;;;;;;;;;;;;;;;;5005027;28;19921;-83
2022/09/10 11:34:21;;;;;;;;;;;;;;;;;;4988810;28;19914;-82
2022/09/10 11:36:46;;;;;;;;;;;;;;;;;;4989040;28;19949;-83
2022/09/10 11:39:12;;;;;;;;;;;;;;;;;;4972994;28;20419;-82
2022/09/10 11:41:40;;;;;;;;;;;;;;;;;;4973818;28;19976;-82
2022/09/10 11:44:06;;;;;;;;;;;;;;;;;;4989790;28;19914;-82
2022/09/10 11:46:31;;;;;;;;;;;;;;;;;;4987703;28;19917;-82
2022/09/10 11:49:02;;;;;;;;;;;;;;;;;;4978886;28;20337;-81
2022/09/10 11:51:29;;;;;;;;;;;;;;;;;;4969084;28;19925;-83
2022/09/10 11:53:54;;;;;;;;;;;;;;;;;;4954066;28;19917;-82
2022/09/10 11:56:20;;;;;;;;;;;;;;;;;;4954094;28;19915;-82
2022/09/10 11:58:45;;;;;;;;;;;;;;;;;;4997507;23;19927;-90
2022/09/10 12:01:13;;;;;;;;;;;;;;;;;;4990726;28;19915;-90
2022/09/10 12:03:39;;;;;;;;;;;;;;;;;;4989400;28;19925;-90
2022/09/10 12:06:05;;;;;;;;;;;;;;;;;;4958877;28;19915;-90
2022/09/10 12:08:31;;;;;;;;;;;;;;;;;;4989556;28;20009;-91
2022/09/10 12:10:58;;;;;;;;;;;;;;;;;;4958732;28;19945;-91
2022/09/10 12:13:26;;;;;;;;;;;;;;;;;;4960641;28;19922;-93
2022/09/10 12:15:51;;;;;;;;;;;;;;;;;;4988766;28;19914;-91
2022/09/10 12:18:16;;;;;;;;;;;;;;;;;;4956563;28;19922;-88
2022/09/10 12:20:42;;;;;;;;;;;;;;;;;;4988384;28;20355;-90
2022/09/10 12:23:07;;;;;;;;;;;;;;;;;;4956782;28;20387;-91
2022/09/10 12:25:33;;;;;;;;;;;;;;;;;;4959290;28;19981;-90
2022/09/10 12:27:58;;;;;;;;;;;;;;;;;;4957742;28;19925;-91
2022/09/10 12:30:24;;;;;;;;;;;;;;;;;;4957124;28;19958;-91
2022/09/10 12:32:49;;;;;;;;;;;;;;;;;;4989381;28;19914;-92
2022/09/10 12:35:15;;;;;;;;;;;;;;;;;;4971952;28;19925;-92
2022/09/10 12:37:40;;;;;;;;;;;;;;;;;;4988406;28;20385;-92
2022/09/10 12:40:06;;;;;;;;;;;;;;;;;;4972218;28;19922;-91
2022/09/10 12:42:31;;;;;;;;;;;;;;;;;;4958485;28;19977;-92
2022/09/10 12:44:57;;;;;;;;;;;;;;;;;;4957262;28;20358;-92
2022/09/10 12:47:22;;;;;;;;;;;;;;;;;;4957970;28;19985;-92
2022/09/10 12:49:48;;;;;;;;;;;;;;;;;;4989106;28;19941;-93
2022/09/10 12:52:13;;;;;;;;;;;;;;;;;;4959560;28;20432;-90
2022/09/10 12:54:39;;;;;;;;;;;;;;;;;;4959951;28;19919;-92
2022/09/10 12:57:07;;;;;;;;;;;;;;;;;;4972478;28;19915;-91
2022/09/10 12:59:32;;;;;;;;;;;;;;;;;;4973913;28;20020;-91
2022/09/10 13:01:58;;;;;;;;;;;;;;;;;;4993186;28;19911;-92
2022/09/10 13:04:23;;;;;;;;;;;;;;;;;;4991385;28;19995;-91
2022/09/10 13:06:48;;;;;;;;;;;;;;;;;;4961956;28;19918;-92
2022/09/10 13:09:15;;;;;;;;;;;;;;;;;;4977692;28;19922;-89
2022/09/10 13:11:41;;;;;;;;;;;;;;;;;;4993399;28;19918;-92
2022/09/10 13:14:06;;;;;;;;;;;;;;;;;;4958479;29;19990;-89
2022/09/10 13:16:33;;;;;;;;;;;;;;;;;;4958067;29;20378;-91
2022/09/10 13:18:59;;;;;;;;;;;;;;;;;;4958078;28;19927;-91
2022/09/10 13:21:24;;;;;;;;;;;;;;;;;;4957553;28;19965;-90
2022/09/10 13:23:50;;;;;;;;;;;;;;;;;;4956735;29;19965;-91
2022/09/10 13:26:15;;;;;;;;;;;;;;;;;;4971945;28;19915;-89
2022/09/10 13:28:41;;;;;;;;;;;;;;;;;;4958979;29;19930;-89
2022/09/10 13:31:10;;;;;;;;;;;;;;;;;;4958349;29;19919;-90
2022/09/10 13:33:36;;;;;;;;;;;;;;;;;;4956904;29;19997;-89
2022/09/10 13:36:01;;;;;;;;;;;;;;;;;;4958702;28;20333;-90
2022/09/10 13:38:26;;;;;;;;;;;;;;;;;;4957978;28;20290;-90
2022/09/10 13:40:52;;;;;;;;;;;;;;;;;;4958151;29;19926;-90
2022/09/10 13:43:17;;;;;;;;;;;;;;;;;;4957651;29;19955;-89
2022/09/10 13:45:43;;;;;;;;;;;;;;;;;;4973607;28;19950;-90
2022/09/10 13:48:08;;;;;;;;;;;;;;;;;;4958010;28;20306;-89
2022/09/10 13:50:33;;;;;;;;;;;;;;;;;;4958304;28;19941;-89
2022/09/10 13:52:59;;;;;;;;;;;;;;;;;;4959654;29;20130;-90
2022/09/10 13:55:24;;;;;;;;;;;;;;;;;;4962318;28;19915;-90
2022/09/10 13:57:49;;;;;;;;;;;;;;;;;;4977559;28;20275;-90
2022/09/10 14:00:15;;;;;;;;;;;;;;;;;;4958490;28;20289;-91
2022/09/10 14:02:41;;;;;;;;;;;;;;;;;;4960890;28;19919;-89
2022/09/10 14:05:06;;;;;;;;;;;;;;;;;;4975191;28;19917;-89
2022/09/10 14:07:31;;;;;;;;;;;;;;;;;;4960261;29;19925;-88
2022/09/10 14:09:57;;;;;;;;;;;;;;;;;;4962496;28;19918;-89
2022/09/10 14:12:24;;;;;;;;;;;;;;;;;;4974999;28;20285;-87
2022/09/10 14:14:50;;;;;;;;;;;;;;;;;;4959099;28;19915;-87
2022/09/10 14:17:15;;;;;;;;;;;;;;;;;;4957264;28;19921;-88
2022/09/10 14:19:41;;;;;;;;;;;;;;;;;;4962624;28;19915;-87
2022/09/10 14:22:06;;;;;;;;;;;;;;;;;;4973331;28;19965;-89
2022/09/10 14:24:33;;;;;;;;;;;;;;;;;;4939324;29;20366;-90
2022/09/10 14:26:58;;;;;;;;;;;;;;;;;;4970319;28;20066;-89
2022/09/10 14:29:24;;;;;;;;;;;;;;;;;;4938279;29;20017;-90
2022/09/10 14:31:49;;;;;;;;;;;;;;;;;;4938593;29;19911;-89
2022/09/10 14:34:15;;;;;;;;;;;;;;;;;;4978549;28;19926;-88
2022/09/10 14:36:40;;;;;;;;;;;;;;;;;;4958037;29;19918;-90
2022/09/10 14:39:08;;;;;;;;;;;;;;;;;;4974659;28;19969;-90
2022/09/10 14:41:33;;;;;;;;;;;;;;;;;;4990777;28;19921;-87
2022/09/10 14:43:59;;;;;;;;;;;;;;;;;;4992191;28;19914;-89
2022/09/10 14:46:26;;;;;;;;;;;;;;;;;;4975810;28;19925;-89
2022/09/10 14:48:51;;;;;;;;;;;;;;;;;;4975338;28;19914;-89
2022/09/10 14:51:16;;;;;;;;;;;;;;;;;;4990847;28;19919;-88
2022/09/10 14:53:42;;;;;;;;;;;;;;;;;;4975189;28;19921;-89
2022/09/10 14:56:07;;;;;;;;;;;;;;;;;;4990600;28;20009;-88
2022/09/10 14:58:33;;;;;;;;;;;;;;;;;;4957475;28;19925;-88
2022/09/10 15:00:59;;;;;;;;;;;;;;;;;;4958604;28;20298;-89
2022/09/10 15:03:24;;;;;;;;;;;;;;;;;;4957648;29;19937;-90
2022/09/10 15:05:50;;;;;;;;;;;;;;;;;;4974649;28;19914;-90
2022/09/10 15:08:15;;;;;;;;;;;;;;;;;;4958127;28;19941;-89
2022/09/10 15:10:41;;;;;;;;;;;;;;;;;;4973703;28;19918;-90
2022/09/10 15:13:06;;;;;;;;;;;;;;;;;;4973722;28;19915;-89
2022/09/10 15:15:31;;;;;;;;;;;;;;;;;;4990743;28;20290;-88
2022/09/10 15:17:57;;;;;;;;;;;;;;;;;;4990720;28;19922;-89
2022/09/10 15:20:22;;;;;;;;;;;;;;;;;;4957340;28;20226;-91
2022/09/10 15:22:48;;;;;;;;;;;;;;;;;;4958299;29;20413;-89
2022/09/10 15:25:13;;;;;;;;;;;;;;;;;;4973695;28;19915;-90
2022/09/10 15:27:39;;;;;;;;;;;;;;;;;;4958302;28;20017;-91
2022/09/10 15:30:04;;;;;;;;;;;;;;;;;;4976002;28;19919;-92
2022/09/10 15:32:29;;;;;;;;;;;;;;;;;;4975347;28;19914;-89
2022/09/10 15:34:55;;;;;;;;;;;;;;;;;;4964219;29;19950;-90
2022/09/10 15:37:21;;;;;;;;;;;;;;;;;;4976420;29;19915;-89
2022/09/10 15:39:46;;;;;;;;;;;;;;;;;;4975747;29;19913;-90
2022/09/10 15:42:12;;;;;;;;;;;;;;;;;;4975166;29;19922;-90
2022/09/10 15:44:37;;;;;;;;;;;;;;;;;;4959707;28;20012;-90
2022/09/10 15:47:03;;;;;;;;;;;;;;;;;;4991057;28;19899;-90
2022/09/10 15:49:28;;;;;;;;;;;;;;;;;;4941118;28;19925;-88
2022/09/10 15:51:56;;;;;;;;;;;;;;;;;;4973568;28;19955;-90
2022/09/10 15:54:22;;;;;;;;;;;;;;;;;;4954115;29;19925;-89
2022/09/10 15:56:47;;;;;;;;;;;;;;;;;;4954322;29;19973;-90
2022/09/10 15:59:15;;;;;;;;;;;;;;;;;;4953560;28;19918;-91
2022/09/10 16:01:41;;;;;;;;;;;;;;;;;;4969675;28;19918;-91
2022/09/10 16:04:06;;;;;;;;;;;;;;;;;;4955146;28;19914;-89
2022/09/10 16:06:32;;;;;;;;;;;;;;;;;;4955183;29;19914;-90
2022/09/10 16:09:00;;;;;;;;;;;;;;;;;;4954587;28;19915;-91
2022/09/10 16:11:26;;;;;;;;;;;;;;;;;;4953647;29;20399;-90
2022/09/10 16:13:51;;;;;;;;;;;;;;;;;;4953064;28;19915;-90
2022/09/10 16:16:17;;;;;;;;;;;;;;;;;;4953352;29;19982;-90
2022/09/10 16:18:42;;;;;;;;;;;;;;;;;;4969608;28;19921;-90
2022/09/10 16:21:08;;;;;;;;;;;;;;;;;;4953557;29;19941;-90
2022/09/10 16:23:33;;;;;;;;;;;;;;;;;;4953872;28;19965;-91
2022/09/10 16:25:59;;;;;;;;;;;;;;;;;;4954469;29;20318;-90
2022/09/10 16:28:25;;;;;;;;;;;;;;;;;;4969512;28;20305;-89
2022/09/10 16:30:51;;;;;;;;;;;;;;;;;;4953707;29;19922;-91
2022/09/10 16:33:17;;;;;;;;;;;;;;;;;;4956777;28;19925;-90
2022/09/10 16:35:42;;;;;;;;;;;;;;;;;;4958897;28;19915;-91
2022/09/10 16:38:07;;;;;;;;;;;;;;;;;;4957697;29;19915;-89
2022/09/10 16:40:33;;;;;;;;;;;;;;;;;;4958253;29;20277;-91